Darstellungsparameter: Aktuell verwendete Einstellungen:
Skalierung der Graphiken ... ?
xyx+y,   Skalierungsfaktor:      Skalierung: Modus: x, Faktor: 1
Darstellungszeitraum ... ?
Vom - - bis: - -   Zeitraum: 06.03.2021 - 06.03.2021
Min/Max/Avg-Anzeige ... ?
Zeige MMA aktuell
Zeige MMA Monat
Zeige MMA alles
Zeige --A aktuell
Zeige --A Monat
Zeige --A alles
Keine MMA-Anzeige
MMA:
Keine MMA-Graphiken
MMA-Basis: 06.03.2021 - 06.03.2021
Quicknavigation für Darstellung... ?
Tage:      1T, 2T, 3T, 5T -1T -2T -3T -5T +1T +2T +3T +5T
Wochen: 1W, 2W, 3W -1W -2W -3W +1W +2W +3W
Monate: 1M, 3M, 6M -1M -3M -6M +1M +3M +6M
Jahre:    1J, 3J, 5J, 10J -1J -3J -5J -10J +1J +3J +5J +10J
Nutze für die Darstellung ... ?
Originaldaten oder Mittelwerte auf ...
Stundenbasis Tagesbasis Wochenbasis
Monatsbasis Jahresbasis      Datenbasis: Original-Daten
Darstellen als:
Statistik (Auto) Statistik J:M      Darstellung:

Der gewünschte Datumsbereich war nicht gültig/verfügbar und wurde korrigiert....
Das angegebene Enddatum (17.08.2022 23:59:59) liegt in der Zukunft.
Das angegebene Startdatum (17.08.2022 00:00:00) liegt in der Zukunft.


Zur Graphik,    zurück zur Übersicht aller Sensoren.
 
Tabellarische Datenbersicht: ?
 
Sensor: Nr:Datum:Temp:Feuchte:Taupunkt:
Aussen-T/F 1 06-03-2021 01:00:00 -2.4 C 90 % -3.81 C
2 06-03-2021 01:05:00 -2.4 C 90 % -3.81 C
3 06-03-2021 01:10:00 -2.4 C 90 % -3.81 C
4 06-03-2021 01:15:00 -2.5 C 90 % -3.91 C
5 06-03-2021 01:20:00 -2.6 C 90 % -4.01 C
6 06-03-2021 01:25:00 -2.6 C 90 % -4.01 C
7 06-03-2021 01:30:00 -2.7 C 90 % -4.11 C
8 06-03-2021 01:35:00 -2.7 C 90 % -4.11 C
9 06-03-2021 01:40:00 -2.7 C 90 % -4.11 C
10 06-03-2021 01:45:00 -2.7 C 90 % -4.11 C
11 06-03-2021 01:50:00 -2.8 C 91 % -4.06 C
12 06-03-2021 01:55:00 -2.8 C 90 % -4.21 C
13 06-03-2021 02:00:00 -2.8 C 91 % -4.06 C
14 06-03-2021 02:05:00 -2.8 C 91 % -4.06 C
15 06-03-2021 02:10:00 -2.8 C 91 % -4.06 C
16 06-03-2021 02:15:00 -2.8 C 91 % -4.06 C
17 06-03-2021 02:20:00 -2.8 C 91 % -4.06 C
18 06-03-2021 02:25:00 -2.9 C 91 % -4.16 C
19 06-03-2021 02:30:00 -2.9 C 91 % -4.16 C
20 06-03-2021 02:35:00 -3 C 91 % -4.26 C
21 06-03-2021 02:40:00 -3 C 91 % -4.26 C
22 06-03-2021 02:45:00 -3 C 91 % -4.26 C
23 06-03-2021 02:50:00 -3.1 C 91 % -4.36 C
24 06-03-2021 02:55:00 -3.1 C 91 % -4.36 C
25 06-03-2021 03:00:00 -3.2 C 91 % -4.46 C
Sensor: Nr:Datum:Temp:Feuchte:Taupunkt:
Aussen-T/F 26 06-03-2021 03:05:00 -3.2 C 91 % -4.46 C
27 06-03-2021 03:10:00 -3.3 C 91 % -4.56 C
28 06-03-2021 03:15:00 -3.3 C 91 % -4.56 C
29 06-03-2021 03:20:00 -3.3 C 91 % -4.56 C
30 06-03-2021 03:25:00 -3.3 C 92 % -4.41 C
31 06-03-2021 03:30:00 -3.3 C 92 % -4.41 C
32 06-03-2021 03:35:00 -3.4 C 92 % -4.51 C
33 06-03-2021 03:40:00 -3.4 C 92 % -4.51 C
34 06-03-2021 03:45:00 -3.4 C 92 % -4.51 C
35 06-03-2021 03:50:00 -3.5 C 92 % -4.61 C
36 06-03-2021 03:55:00 -3.5 C 92 % -4.61 C
37 06-03-2021 04:00:00 -3.4 C 92 % -4.51 C
38 06-03-2021 04:05:00 -3.5 C 92 % -4.61 C
39 06-03-2021 04:10:00 -3.5 C 92 % -4.61 C
40 06-03-2021 04:15:00 -3.6 C 92 % -4.71 C
41 06-03-2021 04:20:00 -3.6 C 92 % -4.71 C
42 06-03-2021 04:25:00 -3.6 C 92 % -4.71 C
43 06-03-2021 04:30:00 -3.7 C 92 % -4.81 C
44 06-03-2021 04:35:00 -3.7 C 92 % -4.81 C
45 06-03-2021 04:40:00 -3.7 C 92 % -4.81 C
46 06-03-2021 04:45:00 -3.8 C 92 % -4.91 C
47 06-03-2021 04:50:00 -3.8 C 92 % -4.91 C
48 06-03-2021 04:55:00 -3.8 C 92 % -4.91 C
49 06-03-2021 05:00:00 -3.9 C 92 % -5 C
50 06-03-2021 05:05:00 -3.9 C 93 % -4.86 C
Sensor: Nr:Datum:Temp:Feuchte:Taupunkt:
Aussen-T/F 51 06-03-2021 05:10:00 -3.9 C 93 % -4.86 C
52 06-03-2021 05:15:00 -3.9 C 93 % -4.86 C
53 06-03-2021 05:20:00 -3.9 C 93 % -4.86 C
54 06-03-2021 05:25:00 -4 C 93 % -4.96 C
55 06-03-2021 05:30:00 -4 C 93 % -4.96 C
56 06-03-2021 05:35:00 -4 C 93 % -4.96 C
57 06-03-2021 05:40:00 -4.1 C 93 % -5.06 C
58 06-03-2021 05:45:00 -4.1 C 93 % -5.06 C
59 06-03-2021 05:50:00 -4.2 C 93 % -5.16 C
60 06-03-2021 05:55:00 -4.2 C 93 % -5.16 C
61 06-03-2021 06:00:00 -4.2 C 93 % -5.16 C
62 06-03-2021 06:05:00 -4.2 C 93 % -5.16 C
63 06-03-2021 06:10:00 -4.3 C 93 % -5.26 C
64 06-03-2021 06:15:00 -4.3 C 93 % -5.26 C
65 06-03-2021 06:20:00 -4.3 C 93 % -5.26 C
66 06-03-2021 06:25:00 -4.3 C 93 % -5.26 C
67 06-03-2021 06:30:00 -4.3 C 93 % -5.26 C
68 06-03-2021 06:35:00 -4.3 C 93 % -5.26 C
69 06-03-2021 06:40:00 -4.3 C 93 % -5.26 C
70 06-03-2021 06:45:00 -4.3 C 93 % -5.26 C
71 06-03-2021 06:50:00 -4.3 C 93 % -5.26 C
72 06-03-2021 06:55:00 -4.4 C 93 % -5.36 C
73 06-03-2021 07:00:00 -4.3 C 93 % -5.26 C
74 06-03-2021 07:05:00 -4.4 C 93 % -5.36 C
75 06-03-2021 07:10:00 -4.4 C 93 % -5.36 C
Sensor: Nr:Datum:Temp:Feuchte:Taupunkt:
Aussen-T/F 76 06-03-2021 07:15:00 -4.4 C 93 % -5.36 C
77 06-03-2021 07:20:00 -4.3 C 93 % -5.26 C
78 06-03-2021 07:25:00 -4.3 C 93 % -5.26 C
79 06-03-2021 07:30:00 -4.3 C 93 % -5.26 C
80 06-03-2021 07:35:00 -4.3 C 94 % -5.12 C
81 06-03-2021 07:40:00 -4.3 C 94 % -5.12 C
82 06-03-2021 07:45:00 -4.3 C 94 % -5.12 C
83 06-03-2021 07:50:00 -4.3 C 94 % -5.12 C
84 06-03-2021 07:55:00 -4.3 C 94 % -5.12 C
85 06-03-2021 08:00:00 -4.3 C 94 % -5.12 C
86 06-03-2021 08:05:00 -4.3 C 94 % -5.12 C
87 06-03-2021 08:10:00 -4.2 C 94 % -5.02 C
88 06-03-2021 08:15:00 -4.2 C 94 % -5.02 C
89 06-03-2021 08:20:00 -4.2 C 94 % -5.02 C
90 06-03-2021 08:25:00 -4.1 C 94 % -4.92 C
91 06-03-2021 08:30:00 -4.1 C 94 % -4.92 C
92 06-03-2021 08:35:00 -4 C 94 % -4.82 C
93 06-03-2021 08:40:00 -3.9 C 94 % -4.72 C
94 06-03-2021 08:45:00 -3.8 C 94 % -4.62 C
95 06-03-2021 08:50:00 -3.8 C 94 % -4.62 C
96 06-03-2021 08:55:00 -3.7 C 94 % -4.52 C
97 06-03-2021 09:00:00 -3.7 C 94 % -4.52 C
98 06-03-2021 09:05:00 -3.6 C 94 % -4.42 C
99 06-03-2021 09:10:00 -3.4 C 94 % -4.22 C
100 06-03-2021 09:15:00 -3.3 C 94 % -4.13 C
Sensor: Nr:Datum:Temp:Feuchte:Taupunkt:
Aussen-T/F 101 06-03-2021 09:20:00 -3.2 C 95 % -3.88 C
102 06-03-2021 09:25:00 -3.1 C 95 % -3.79 C
103 06-03-2021 09:30:00 -3 C 95 % -3.69 C
104 06-03-2021 09:35:00 -2.9 C 95 % -3.59 C
105 06-03-2021 09:40:00 -2.8 C 95 % -3.49 C
106 06-03-2021 09:45:00 -2.7 C 95 % -3.39 C
107 06-03-2021 09:50:00 -2.6 C 95 % -3.29 C
108 06-03-2021 09:55:00 -2.5 C 95 % -3.19 C
109 06-03-2021 10:00:00 -2.3 C 95 % -2.99 C
110 06-03-2021 10:05:00 -2.2 C 95 % -2.89 C
111 06-03-2021 10:10:00 -2.1 C 95 % -2.79 C
112 06-03-2021 10:15:00 -1.9 C 95 % -2.59 C
113 06-03-2021 10:20:00 -1.7 C 95 % -2.39 C
114 06-03-2021 10:25:00 -1.5 C 95 % -2.19 C
115 06-03-2021 10:30:00 -1.2 C 95 % -1.9 C
116 06-03-2021 10:35:00 -0.9 C 95 % -1.6 C
117 06-03-2021 10:40:00 -0.7 C 95 % -1.4 C
118 06-03-2021 10:45:00 -0.4 C 95 % -1.1 C
119 06-03-2021 10:50:00 -0.1 C 95 % -0.8 C
120 06-03-2021 10:55:00 0.2 C 95 % -0.5 C
121 06-03-2021 11:00:00 0.4 C 95 % -0.31 C
122 06-03-2021 11:05:00 0.6 C 94 % -0.25 C
123 06-03-2021 11:10:00 0.8 C 94 % -0.05 C
124 06-03-2021 11:15:00 1.1 C 93 % 0.1 C
125 06-03-2021 11:20:00 1.3 C 92 % 0.15 C
Sensor: Nr:Datum:Temp:Feuchte:Taupunkt:
Aussen-T/F 126 06-03-2021 11:25:00 1.7 C 92 % 0.54 C
127 06-03-2021 11:30:00 2 C 90 % 0.54 C
128 06-03-2021 11:35:00 2.3 C 87 % 0.36 C
129 06-03-2021 11:40:00 2.6 C 83 % 0.01 C
130 06-03-2021 11:45:00 3.1 C 78 % -0.35 C
131 06-03-2021 11:50:00 3.4 C 75 % -0.6 C
132 06-03-2021 11:55:00 3.7 C 74 % -0.49 C
133 06-03-2021 12:00:00 4 C 72 % -0.58 C
134 06-03-2021 12:05:00 4.4 C 69 % -0.78 C
135 06-03-2021 12:10:00 4.8 C 64 % -1.42 C
136 06-03-2021 12:15:00 5.1 C 63 % -1.35 C
137 06-03-2021 12:20:00 5.4 C 62 % -1.28 C
138 06-03-2021 12:25:00 5.6 C 61 % -1.31 C
139 06-03-2021 12:30:00 5.8 C 61 % -1.13 C
140 06-03-2021 12:35:00 5.9 C 62 % -0.81 C
141 06-03-2021 12:40:00 6.2 C 61 % -0.75 C
142 06-03-2021 12:45:00 6.4 C 57 % -1.48 C
143 06-03-2021 12:50:00 6.5 C 55 % -1.87 C
144 06-03-2021 12:55:00 6.6 C 48 % -3.61 C
145 06-03-2021 13:00:00 6.6 C 47 % -3.89 C
146 06-03-2021 13:05:00 6.7 C 47 % -3.8 C
147 06-03-2021 13:10:00 6.9 C 44 % -4.49 C
148 06-03-2021 13:15:00 6.9 C 43 % -4.79 C
149 06-03-2021 13:20:00 7 C 43 % -4.7 C
150 06-03-2021 13:25:00 7.1 C 42 % -4.92 C
Sensor: Nr:Datum:Temp:Feuchte:Taupunkt:
Aussen-T/F 151 06-03-2021 13:30:00 7.2 C 40 % -5.47 C
152 06-03-2021 13:35:00 7.2 C 42 % -4.83 C
153 06-03-2021 13:40:00 7.3 C 42 % -4.74 C
154 06-03-2021 13:45:00 7.3 C 39 % -5.72 C
155 06-03-2021 13:50:00 7.3 C 42 % -4.74 C
156 06-03-2021 13:55:00 7.3 C 43 % -4.43 C
157 06-03-2021 14:00:00 7.6 C 39 % -5.45 C
158 06-03-2021 14:05:00 7.7 C 41 % -4.7 C
159 06-03-2021 14:10:00 7.7 C 39 % -5.36 C
160 06-03-2021 14:15:00 7.7 C 41 % -4.7 C
161 06-03-2021 14:20:00 7.8 C 41 % -4.61 C
162 06-03-2021 14:25:00 7.8 C 41 % -4.61 C
163 06-03-2021 14:30:00 7.8 C 39 % -5.27 C
164 06-03-2021 14:35:00 7.6 C 39 % -5.45 C
165 06-03-2021 14:40:00 7.4 C 38 % -5.97 C
166 06-03-2021 14:45:00 7.3 C 40 % -5.38 C
167 06-03-2021 14:50:00 7.3 C 41 % -5.06 C
168 06-03-2021 14:55:00 7.3 C 40 % -5.38 C
169 06-03-2021 15:00:00 7.4 C 39 % -5.63 C
170 06-03-2021 15:05:00 7.5 C 38 % -5.88 C
171 06-03-2021 15:10:00 7.7 C 38 % -5.7 C
172 06-03-2021 15:15:00 7.6 C 41 % -4.79 C
173 06-03-2021 15:20:00 7.6 C 42 % -4.47 C
174 06-03-2021 15:25:00 7.6 C 40 % -5.11 C
175 06-03-2021 15:30:00 7.6 C 39 % -5.45 C
Sensor: Nr:Datum:Temp:Feuchte:Taupunkt:
Aussen-T/F 176 06-03-2021 15:35:00 7.8 C 41 % -4.61 C
177 06-03-2021 15:40:00 7.9 C 39 % -5.18 C
178 06-03-2021 15:45:00 7.9 C 38 % -5.52 C
179 06-03-2021 15:50:00 7.8 C 37 % -5.96 C
180 06-03-2021 15:55:00 7.8 C 38 % -5.61 C
181 06-03-2021 16:00:00 7.9 C 39 % -5.18 C
182 06-03-2021 16:05:00 8.1 C 39 % -5 C
183 06-03-2021 16:10:00 8.2 C 38 % -5.25 C
184 06-03-2021 16:15:00 8.2 C 39 % -4.91 C
185 06-03-2021 16:20:00 8.2 C 39 % -4.91 C
186 06-03-2021 16:25:00 8.3 C 41 % -4.16 C
187 06-03-2021 16:30:00 8.3 C 39 % -4.82 C
188 06-03-2021 16:35:00 8.3 C 39 % -4.82 C
189 06-03-2021 16:40:00 8.3 C 40 % -4.48 C
190 06-03-2021 16:45:00 8.4 C 40 % -4.4 C
191 06-03-2021 16:50:00 8.4 C 40 % -4.4 C
192 06-03-2021 16:55:00 8.6 C 39 % -4.55 C
193 06-03-2021 17:00:00 8.7 C 38 % -4.8 C
194 06-03-2021 17:05:00 8.6 C 43 % -3.25 C
195 06-03-2021 17:10:00 8.6 C 40 % -4.22 C
196 06-03-2021 17:15:00 8.7 C 41 % -3.8 C
197 06-03-2021 17:20:00 9.1 C 45 % -2.19 C
198 06-03-2021 17:25:00 9.3 C 44 % -2.31 C
199 06-03-2021 17:30:00 9.3 C 47 % -1.42 C
200 06-03-2021 17:35:00 9.3 C 49 % -0.85 C
Sensor: Nr:Datum:Temp:Feuchte:Taupunkt:
Aussen-T/F 201 06-03-2021 17:40:00 9.1 C 46 % -1.89 C
202 06-03-2021 17:45:00 8.6 C 48 % -1.77 C
203 06-03-2021 17:50:00 8.1 C 48 % -2.23 C
204 06-03-2021 17:55:00 7.4 C 51 % -2.06 C
205 06-03-2021 18:00:00 6.9 C 53 % -2 C
206 06-03-2021 18:05:00 6.3 C 54 % -2.31 C
207 06-03-2021 18:10:00 5.8 C 56 % -2.28 C
208 06-03-2021 18:15:00 5.3 C 58 % -2.28 C
209 06-03-2021 18:20:00 4.8 C 60 % -2.29 C
210 06-03-2021 18:25:00 4.4 C 61 % -2.45 C
211 06-03-2021 18:30:00 4 C 61 % -2.82 C
212 06-03-2021 18:35:00 3.7 C 63 % -2.68 C
213 06-03-2021 18:40:00 3.4 C 63 % -2.96 C
214 06-03-2021 18:45:00 3.1 C 64 % -3.03 C
215 06-03-2021 18:50:00 2.9 C 64 % -3.22 C
216 06-03-2021 18:55:00 2.7 C 65 % -3.21 C
217 06-03-2021 19:00:00 2.6 C 65 % -3.3 C
218 06-03-2021 19:05:00 2.4 C 66 % -3.29 C
219 06-03-2021 19:10:00 2.3 C 67 % -3.18 C
220 06-03-2021 19:15:00 2.2 C 68 % -3.08 C
221 06-03-2021 19:20:00 2 C 68 % -3.27 C
222 06-03-2021 19:25:00 1.8 C 69 % -3.27 C
223 06-03-2021 19:30:00 1.7 C 70 % -3.17 C
224 06-03-2021 19:35:00 1.6 C 71 % -3.08 C
225 06-03-2021 19:40:00 1.5 C 71 % -3.17 C
Sensor: Nr:Datum:Temp:Feuchte:Taupunkt:
Aussen-T/F 226 06-03-2021 19:45:00 1.4 C 71 % -3.27 C
227 06-03-2021 19:50:00 1.4 C 71 % -3.27 C
228 06-03-2021 19:55:00 1.4 C 71 % -3.27 C
229 06-03-2021 20:00:00 1.3 C 73 % -2.99 C
230 06-03-2021 20:05:00 1.2 C 73 % -3.09 C
231 06-03-2021 20:10:00 1.1 C 74 % -3 C
232 06-03-2021 20:15:00 0.9 C 74 % -3.2 C
233 06-03-2021 20:20:00 0.8 C 76 % -2.94 C
234 06-03-2021 20:25:00 0.7 C 76 % -3.03 C
235 06-03-2021 20:30:00 0.6 C 76 % -3.13 C
236 06-03-2021 20:35:00 0.5 C 77 % -3.05 C
237 06-03-2021 20:40:00 0.3 C 77 % -3.25 C
238 06-03-2021 20:45:00 0.2 C 78 % -3.17 C
239 06-03-2021 20:50:00 0.1 C 79 % -3.1 C
240 06-03-2021 20:55:00 0 C 80 % -3.03 C
241 06-03-2021 21:00:00 -0.1 C 81 % -2.96 C
242 06-03-2021 21:05:00 -0.2 C 81 % -3.06 C
243 06-03-2021 21:10:00 -0.2 C 81 % -3.06 C
244 06-03-2021 21:15:00 -0.2 C 81 % -3.06 C
245 06-03-2021 21:20:00 -0.3 C 80 % -3.32 C
246 06-03-2021 21:25:00 -0.4 C 80 % -3.42 C
247 06-03-2021 21:30:00 -0.6 C 80 % -3.62 C
248 06-03-2021 21:35:00 -0.7 C 81 % -3.55 C
249 06-03-2021 21:40:00 -0.8 C 82 % -3.48 C
250 06-03-2021 21:45:00 -0.9 C 83 % -3.42 C
Sensor: Nr:Datum:Temp:Feuchte:Taupunkt:
Aussen-T/F 251 06-03-2021 21:50:00 -1 C 83 % -3.51 C
252 06-03-2021 21:55:00 -1.1 C 82 % -3.77 C
253 06-03-2021 22:00:00 -1.2 C 83 % -3.71 C
254 06-03-2021 22:05:00 -1.2 C 83 % -3.71 C
255 06-03-2021 22:10:00 -1.3 C 83 % -3.81 C
256 06-03-2021 22:15:00 -1.4 C 82 % -4.07 C
257 06-03-2021 22:20:00 -1.4 C 83 % -3.91 C
258 06-03-2021 22:25:00 -1.6 C 83 % -4.1 C
259 06-03-2021 22:30:00 -1.6 C 83 % -4.1 C
260 06-03-2021 22:35:00 -1.7 C 83 % -4.2 C
261 06-03-2021 22:40:00 -1.8 C 83 % -4.3 C
262 06-03-2021 22:45:00 -1.8 C 83 % -4.3 C
263 06-03-2021 22:50:00 -1.9 C 83 % -4.4 C
264 06-03-2021 22:55:00 -2.1 C 84 % -4.43 C

Legende:
   Min
   Max


Maximal/Minimal-Werte vom 06.03.2021 - 06.03.2021

Sensor Min Max Avg
Temp
(Aussen-T/F)
-4.4 °C
06-03-2021  06:55:00
9.3 °C
06-03-2021  17:25:00
0.82 °C
Feuchte
(Aussen-T/F)
37 %
06-03-2021  15:50:00
95 %
06-03-2021  09:20:00
75.09 %
Taupunkt
(Aussen-T/F)
-5.97 C
06-03-2021  14:40:00
0.54 C
06-03-2021  11:25:00
-3.79 C

Die Daten stammen von einer Davis Vantage Pro 2 Wetter-Station und werden unter Linux mit der Software wview2wettercgi und aufbereitet. Alle Angaben erfolgen ohne Gewähr für ihre Vollständigkeit oder Richtigkeit.
Kontakt: Rainer Krienke krienke@uni-koblenz.de . Meine Webseiten an der Uni Koblenz oder privat.
Version: $Revision: 0.78 $